createdAt,value
2023-02-04T00:01:12.247Z,7.47
2023-02-04T00:03:39.205Z,7.63
2023-02-04T00:06:06.434Z,9.38
2023-02-04T00:08:33.441Z,6.70
2023-02-04T00:11:00.464Z,7.50
2023-02-04T00:13:27.437Z,7.95
2023-02-04T00:15:54.474Z,6.70
2023-02-04T00:18:22.177Z,7.78
2023-02-04T00:20:49.274Z,8.63
2023-02-04T00:23:16.300Z,6.68
2023-02-04T00:25:43.266Z,6.82
2023-02-04T00:28:10.234Z,8.32
2023-02-04T00:30:37.274Z,7.65
2023-02-04T00:33:04.334Z,8.80
2023-02-04T00:35:31.320Z,8.20
2023-02-04T00:37:58.277Z,6.60
2023-02-04T00:40:26.103Z,6.85
2023-02-04T00:42:53.094Z,7.30
2023-02-04T00:45:20.195Z,7.65
2023-02-04T00:47:47.194Z,7.38
2023-02-04T00:50:14.364Z,8.43
2023-02-04T00:52:41.342Z,7.75
2023-02-04T00:55:10.508Z,7.72
2023-02-04T00:57:37.878Z,7.57
2023-02-04T01:00:06.670Z,6.95
2023-02-04T01:02:33.909Z,7.35
2023-02-04T01:05:01.485Z,8.02
2023-02-04T01:07:28.653Z,6.68
2023-02-04T01:09:55.680Z,9.05
2023-02-04T01:12:23.123Z,7.65
2023-02-04T01:14:50.326Z,8.35
2023-02-04T01:17:18.586Z,7.18
2023-02-04T01:19:47.437Z,7.30
2023-02-04T01:22:14.601Z,7.50
2023-02-04T01:24:41.594Z,7.88
2023-02-04T01:27:27.226Z,8.07
2023-02-04T01:29:54.279Z,10.48
2023-02-04T01:32:21.267Z,7.63
2023-02-04T01:34:48.344Z,7.68
2023-02-04T01:37:15.413Z,8.75
2023-02-04T01:39:42.431Z,7.95
2023-02-04T01:42:09.952Z,9.45
2023-02-04T01:44:37.002Z,8.45
2023-02-04T01:47:03.967Z,7.90
2023-02-04T01:49:31.156Z,8.60
2023-02-04T01:51:58.310Z,9.35
2023-02-04T01:54:26.455Z,9.43
2023-02-04T01:56:55.374Z,9.07
2023-02-04T01:59:23.832Z,10.25
2023-02-04T02:01:53.446Z,9.32
2023-02-04T02:04:33.205Z,10.45
2023-02-04T02:07:05.063Z,10.40
2023-02-04T02:09:33.905Z,12.48
2023-02-04T02:12:03.311Z,9.02
2023-02-04T02:14:30.674Z,9.10
2023-02-04T02:16:57.990Z,8.90
2023-02-04T02:19:36.316Z,13.50
2023-02-04T02:22:11.217Z,8.85
2023-02-04T02:24:38.253Z,10.70
2023-02-04T02:27:10.105Z,10.57
2023-02-04T02:29:39.035Z,8.65
2023-02-04T02:32:06.670Z,10.73
2023-02-04T02:34:34.515Z,10.07
2023-02-04T02:37:04.655Z,9.82
2023-02-04T02:39:31.902Z,10.15
2023-02-04T02:42:00.292Z,9.77
2023-02-04T02:44:29.178Z,9.10
2023-02-04T02:46:57.745Z,9.55
2023-02-04T02:49:26.552Z,10.43
2023-02-04T02:51:53.730Z,9.02
2023-02-04T02:54:30.570Z,8.57
2023-02-04T02:57:00.894Z,9.68
2023-02-04T02:59:28.052Z,8.60
2023-02-04T03:02:01.814Z,10.10
2023-02-04T03:04:37.594Z,11.88
2023-02-04T03:07:06.188Z,9.82
2023-02-04T03:09:35.554Z,8.90
2023-02-04T03:12:03.256Z,9.05
2023-02-04T03:14:30.317Z,9.15
2023-02-04T03:16:58.064Z,10.05
2023-02-04T03:19:26.164Z,9.90
2023-02-04T03:21:54.641Z,10.13
2023-02-04T03:24:23.127Z,9.77
2023-02-04T03:26:50.326Z,9.48
2023-02-04T03:29:17.308Z,9.30
2023-02-04T03:31:44.417Z,8.57
2023-02-04T03:34:11.433Z,7.93
2023-02-04T03:36:38.520Z,10.00
2023-02-04T03:39:05.492Z,9.35
2023-02-04T03:41:32.469Z,8.60
2023-02-04T03:43:59.471Z,9.57
2023-02-04T03:46:27.556Z,9.75
2023-02-04T03:48:54.535Z,8.48
2023-02-04T03:51:21.529Z,8.40
2023-02-04T03:53:48.475Z,9.82
2023-02-04T03:56:15.540Z,7.97
2023-02-04T03:58:42.544Z,9.77
2023-02-04T04:01:09.470Z,9.68
2023-02-04T04:03:36.446Z,8.05
2023-02-04T04:06:06.448Z,8.60
2023-02-04T04:08:33.453Z,8.75
2023-02-04T04:11:00.559Z,10.68
2023-02-04T04:13:27.520Z,11.88
2023-02-04T04:15:54.516Z,12.50
2023-02-04T04:18:21.525Z,15.20
2023-02-04T04:20:48.497Z,12.43
2023-02-04T04:23:15.416Z,12.85
2023-02-04T04:25:42.357Z,12.98
2023-02-04T04:28:09.441Z,10.60
2023-02-04T04:30:36.495Z,10.60
2023-02-04T04:33:03.533Z,12.02
2023-02-04T04:35:30.572Z,16.13
2023-02-04T04:37:57.554Z,9.20
2023-02-04T04:40:24.493Z,10.48
2023-02-04T04:42:51.423Z,11.18
2023-02-04T04:45:19.967Z,9.77
2023-02-04T04:47:47.136Z,10.55
2023-02-04T04:50:14.213Z,12.15
2023-02-04T04:52:41.158Z,10.07
2023-02-04T04:55:09.108Z,13.23
2023-02-04T04:57:36.139Z,11.73
2023-02-04T05:00:04.298Z,11.77
2023-02-04T05:02:31.442Z,11.82
2023-02-04T05:04:58.684Z,10.85
2023-02-04T05:07:25.629Z,11.20
2023-02-04T05:09:52.547Z,11.20
2023-02-04T05:12:19.461Z,11.80
2023-02-04T05:14:46.418Z,9.68
2023-02-04T05:17:13.369Z,10.98
2023-02-04T05:19:40.299Z,11.88
2023-02-04T05:22:07.224Z,10.93
2023-02-04T05:24:34.177Z,10.27
2023-02-04T05:27:01.117Z,11.55
2023-02-04T05:29:28.098Z,10.60
2023-02-04T05:31:55.103Z,11.27
2023-02-04T05:34:22.088Z,12.75
2023-02-04T05:36:49.125Z,12.63
2023-02-04T05:39:16.076Z,16.42
2023-02-04T05:41:43.054Z,15.57
2023-02-04T05:44:10.061Z,15.15
2023-02-04T05:46:37.370Z,12.88
2023-02-04T05:49:04.341Z,17.58
2023-02-04T05:51:31.379Z,16.33
2023-02-04T05:53:58.353Z,13.70
2023-02-04T05:56:28.032Z,11.43
2023-02-04T05:58:55.145Z,14.20
2023-02-04T06:01:22.262Z,13.18
2023-02-04T06:03:49.240Z,11.60
2023-02-04T06:06:16.222Z,11.00
2023-02-04T06:08:43.191Z,11.65
2023-02-04T06:11:10.160Z,13.30
2023-02-04T06:13:37.096Z,15.70
2023-02-04T06:16:04.103Z,10.85
2023-02-04T06:18:31.056Z,10.50
2023-02-04T06:20:57.988Z,9.65
2023-02-04T06:23:25.064Z,19.25
2023-02-04T06:25:52.050Z,14.43
2023-02-04T06:28:19.069Z,17.58
2023-02-04T06:30:46.253Z,14.20
2023-02-04T06:33:13.297Z,16.35
2023-02-04T06:35:40.258Z,14.90
2023-02-04T06:38:07.325Z,15.40
2023-02-04T06:40:34.457Z,12.88
2023-02-04T06:43:02.631Z,16.30
2023-02-04T06:45:30.410Z,16.20
2023-02-04T06:47:57.388Z,15.95
2023-02-04T06:50:24.420Z,13.65
2023-02-04T06:52:51.373Z,15.63
2023-02-04T06:55:18.864Z,15.82
2023-02-04T06:57:45.913Z,16.42
2023-02-04T07:00:13.566Z,16.48
2023-02-04T07:02:40.583Z,14.38
2023-02-04T07:05:07.665Z,15.82
2023-02-04T07:07:34.777Z,15.15
2023-02-04T07:10:01.818Z,14.50
2023-02-04T07:12:30.102Z,12.98
2023-02-04T07:14:57.108Z,12.25
2023-02-04T07:17:24.100Z,14.18
2023-02-04T07:19:51.095Z,13.23
2023-02-04T07:22:18.027Z,13.00
2023-02-04T07:24:45.002Z,12.90
2023-02-04T07:27:11.982Z,12.27
2023-02-04T07:29:38.923Z,13.45
2023-02-04T07:32:06.205Z,12.00
2023-02-04T07:34:33.233Z,12.13
2023-02-04T07:37:00.292Z,13.07
2023-02-04T07:39:27.342Z,10.10
2023-02-04T07:41:54.381Z,10.10
2023-02-04T07:44:24.892Z,10.63
2023-02-04T07:46:51.846Z,11.50
2023-02-04T07:49:18.806Z,13.98
2023-02-04T07:51:45.712Z,11.50
2023-02-04T07:54:12.666Z,12.70
2023-02-04T07:56:39.692Z,12.15
2023-02-04T07:59:06.640Z,9.95
2023-02-04T08:01:34.271Z,10.88
2023-02-04T08:04:02.068Z,11.18
2023-02-04T08:06:29.378Z,10.23
2023-02-04T08:08:56.320Z,11.25
2023-02-04T08:11:23.359Z,12.15
2023-02-04T08:13:50.357Z,12.85
2023-02-04T08:16:17.405Z,9.65
2023-02-04T08:18:44.397Z,11.35
2023-02-04T08:21:11.658Z,10.05
2023-02-04T08:23:41.976Z,12.10
2023-02-04T08:26:11.235Z,11.90
2023-02-04T08:28:38.707Z,11.10
2023-02-04T08:31:07.186Z,9.50
2023-02-04T08:33:34.413Z,10.18
2023-02-04T08:36:01.361Z,10.25
2023-02-04T08:38:28.509Z,9.93
2023-02-04T08:40:55.604Z,10.25
2023-02-04T08:44:20.208Z,15.30
2023-02-04T08:46:47.325Z,12.73
2023-02-04T08:52:03.264Z,11.40
2023-02-04T08:54:30.737Z,11.77
2023-02-04T08:56:57.703Z,11.30
2023-02-04T08:59:26.009Z,10.73
2023-02-04T09:01:53.224Z,11.15
2023-02-04T09:04:21.502Z,10.68
2023-02-04T09:06:49.511Z,8.80
2023-02-04T09:09:16.497Z,9.40
2023-02-04T09:11:44.130Z,9.00
2023-02-04T09:14:11.182Z,10.20
2023-02-04T09:16:38.195Z,11.30
2023-02-04T09:19:05.870Z,9.63
2023-02-04T09:21:32.896Z,8.88
2023-02-04T09:23:59.938Z,12.15
2023-02-04T09:26:26.930Z,9.32
2023-02-04T09:28:53.900Z,12.68
2023-02-04T09:31:21.086Z,12.52
2023-02-04T09:33:48.284Z,14.52
2023-02-04T09:36:15.444Z,14.65
2023-02-04T09:38:42.411Z,9.10
2023-02-04T09:41:12.342Z,8.35
2023-02-04T09:43:42.411Z,11.40
2023-02-04T09:46:24.900Z,10.82
2023-02-04T09:48:52.333Z,8.70
2023-02-04T09:51:44.023Z,10.85
2023-02-04T09:54:17.124Z,8.77
2023-02-04T09:56:44.639Z,11.05
2023-02-04T09:59:20.674Z,8.85
2023-02-04T10:01:56.130Z,9.80
2023-02-04T10:04:24.241Z,10.18
2023-02-04T10:06:51.524Z,12.43
2023-02-04T10:09:19.050Z,12.85
2023-02-04T10:11:48.544Z,12.13
2023-02-04T10:14:19.755Z,13.40
2023-02-04T10:16:54.018Z,15.45
2023-02-04T10:19:22.229Z,11.80
2023-02-04T10:21:49.800Z,14.23
2023-02-04T10:24:20.053Z,15.05
2023-02-04T10:26:47.725Z,13.48
2023-02-04T10:29:20.695Z,17.33
2023-02-04T10:31:50.493Z,20.70
2023-02-04T10:34:24.581Z,20.35
2023-02-04T10:36:54.049Z,21.45
2023-02-04T10:39:25.815Z,23.13
2023-02-04T10:41:54.019Z,22.67
2023-02-04T10:44:28.139Z,26.27
2023-02-04T10:47:04.504Z,29.30
2023-02-04T10:49:32.192Z,26.02
2023-02-04T10:52:00.710Z,25.58
2023-02-04T10:54:38.525Z,27.95
2023-02-04T10:57:21.655Z,25.85
2023-02-04T10:59:52.340Z,25.05
2023-02-04T11:02:22.284Z,24.80
2023-02-04T11:04:49.282Z,22.70
2023-02-04T11:07:16.315Z,22.45
2023-02-04T11:09:44.218Z,22.45
2023-02-04T11:12:37.237Z,22.13
2023-02-04T11:15:05.066Z,22.42
2023-02-04T11:17:34.028Z,21.20
2023-02-04T11:20:13.506Z,21.75
2023-02-04T11:22:45.898Z,23.90
2023-02-04T11:25:33.846Z,24.15
2023-02-04T11:28:01.167Z,23.48
2023-02-04T11:30:33.992Z,26.13
2023-02-04T11:33:06.805Z,25.60
2023-02-04T11:35:34.259Z,29.38
2023-02-04T11:38:01.466Z,25.50
2023-02-04T11:40:29.768Z,29.38
2023-02-04T11:42:58.669Z,26.85
2023-02-04T11:45:32.498Z,28.27
2023-02-04T11:48:02.716Z,26.95
2023-02-04T11:50:33.068Z,28.73
2023-02-04T11:53:04.373Z,30.23
2023-02-04T11:55:34.868Z,27.85
2023-02-04T11:58:02.018Z,29.23
2023-02-04T12:00:32.231Z,27.70
2023-02-04T12:03:02.752Z,28.48
2023-02-04T12:05:42.156Z,27.27
2023-02-04T12:08:25.365Z,25.98
2023-02-04T12:11:07.737Z,27.17
2023-02-04T12:13:46.484Z,27.55
2023-02-04T12:16:13.547Z,25.98
2023-02-04T12:18:40.702Z,28.48
2023-02-04T12:21:08.131Z,25.00
2023-02-04T12:23:35.080Z,23.90
2023-02-04T12:26:02.106Z,26.05
2023-02-04T12:28:29.192Z,22.73
2023-02-04T12:30:57.041Z,21.23
2023-02-04T12:33:24.150Z,19.63
2023-02-04T12:35:51.872Z,18.52
2023-02-04T12:38:20.511Z,17.02
2023-02-04T12:40:47.654Z,16.88
2023-02-04T12:43:14.630Z,16.40
2023-02-04T12:45:45.820Z,18.08
2023-02-04T12:48:14.241Z,21.17
2023-02-04T12:50:41.740Z,16.95
2023-02-04T12:53:09.067Z,18.45
2023-02-04T12:55:36.482Z,14.70
2023-02-04T12:58:03.691Z,17.70
2023-02-04T13:00:31.114Z,19.88
2023-02-04T13:03:00.958Z,19.48
2023-02-04T13:05:28.317Z,18.13
2023-02-04T13:07:55.502Z,21.00
2023-02-04T13:10:24.091Z,23.05
2023-02-04T13:12:52.132Z,22.92
2023-02-04T13:15:19.557Z,18.70
2023-02-04T13:17:46.569Z,22.45
2023-02-04T13:20:14.831Z,21.52
2023-02-04T13:22:41.838Z,21.35
2023-02-04T13:25:10.356Z,21.63
2023-02-04T13:27:38.450Z,22.20
2023-02-04T13:30:07.405Z,21.98
2023-02-04T13:32:34.724Z,21.95
2023-02-04T13:35:02.021Z,20.33
2023-02-04T13:37:30.460Z,20.00
2023-02-04T13:39:57.454Z,21.02
2023-02-04T13:42:24.436Z,24.08
2023-02-04T13:44:51.457Z,23.10
2023-02-04T13:47:18.446Z,20.65
2023-02-04T13:49:45.796Z,19.40
2023-02-04T13:52:12.721Z,18.50
2023-02-04T13:54:40.406Z,23.30
2023-02-04T13:57:07.330Z,27.15
2023-02-04T13:59:34.301Z,28.27
2023-02-04T14:02:01.368Z,24.98
2023-02-04T14:04:28.464Z,23.63
2023-02-04T14:06:56.577Z,22.77
2023-02-04T14:09:25.467Z,21.05
2023-02-04T14:11:52.556Z,25.23
2023-02-04T14:14:19.504Z,24.08
2023-02-04T14:16:46.625Z,20.70
2023-02-04T14:19:15.152Z,27.50
2023-02-04T14:21:42.168Z,26.85
2023-02-04T14:24:10.409Z,28.45
2023-02-04T14:26:37.381Z,26.00
2023-02-04T14:29:04.845Z,26.65
2023-02-04T14:31:31.883Z,24.25
2023-02-04T14:33:59.387Z,27.77
2023-02-04T14:36:26.389Z,25.73
2023-02-04T14:38:53.418Z,25.98
2023-02-04T14:41:21.571Z,28.25
2023-02-04T14:43:48.772Z,24.45
2023-02-04T14:46:15.866Z,30.55
2023-02-04T14:48:45.566Z,28.83
2023-02-04T14:51:12.606Z,28.20
2023-02-04T14:53:42.375Z,24.67
2023-02-04T14:56:11.142Z,27.98
2023-02-04T14:58:38.085Z,25.48
2023-02-04T15:01:05.369Z,27.63
2023-02-04T15:03:32.357Z,23.50
2023-02-04T15:05:59.354Z,26.85
2023-02-04T15:08:26.328Z,22.27
2023-02-04T15:10:54.386Z,23.52
2023-02-04T15:13:21.536Z,27.23
2023-02-04T15:15:48.484Z,27.52
2023-02-04T15:18:15.626Z,26.55
2023-02-04T15:20:42.591Z,25.27
2023-02-04T15:23:13.147Z,26.75
2023-02-04T15:25:40.610Z,27.38
2023-02-04T15:28:08.949Z,25.95
2023-02-04T15:30:37.586Z,24.38
2023-02-04T15:33:04.684Z,23.17
2023-02-04T15:35:31.643Z,22.55
2023-02-04T15:37:58.869Z,23.58
2023-02-04T15:40:30.239Z,23.88
2023-02-04T15:42:57.348Z,22.00
2023-02-04T15:45:24.351Z,24.42
2023-02-04T15:47:51.331Z,21.67
2023-02-04T15:50:18.453Z,23.98
2023-02-04T15:52:45.589Z,24.48
2023-02-04T15:55:12.808Z,25.17
2023-02-04T15:57:39.871Z,29.13
2023-02-04T16:00:07.443Z,24.15
2023-02-04T16:02:34.511Z,26.33
2023-02-04T16:05:01.604Z,27.20
2023-02-04T16:07:30.160Z,27.55
2023-02-04T16:09:57.227Z,26.80
2023-02-04T16:12:24.444Z,26.65
2023-02-04T16:14:51.531Z,24.95
2023-02-04T16:17:19.179Z,23.45
2023-02-04T16:19:46.237Z,22.80
2023-02-04T16:22:13.378Z,23.83
2023-02-04T16:24:40.409Z,22.15
2023-02-04T16:27:07.439Z,21.60
2023-02-04T16:29:34.483Z,23.65
2023-02-04T16:32:01.498Z,27.77
2023-02-04T16:34:29.483Z,28.48
2023-02-04T16:36:56.587Z,25.90
2023-02-04T16:39:24.566Z,27.92
2023-02-04T16:41:51.661Z,26.70
2023-02-04T16:44:18.595Z,24.65
2023-02-04T16:46:45.652Z,24.15
2023-02-04T16:49:13.052Z,26.13
2023-02-04T16:51:40.194Z,23.48
2023-02-04T16:54:10.017Z,23.38
2023-02-04T16:56:37.082Z,24.55
2023-02-04T16:59:04.426Z,25.10
2023-02-04T17:01:31.555Z,22.17
2023-02-04T17:03:58.651Z,23.80
2023-02-04T17:06:30.914Z,18.17
2023-02-04T17:08:58.395Z,19.23
2023-02-04T17:11:31.986Z,17.63
2023-02-04T17:14:01.350Z,17.77
2023-02-04T17:16:29.530Z,17.75
2023-02-04T17:18:57.082Z,16.77
2023-02-04T17:21:26.099Z,19.80
2023-02-04T17:23:53.686Z,20.45
2023-02-04T17:26:21.415Z,17.23
2023-02-04T17:28:50.844Z,17.60
2023-02-04T17:31:17.867Z,18.73
2023-02-04T17:33:44.939Z,16.58
2023-02-04T17:36:13.896Z,16.58
2023-02-04T17:38:41.569Z,18.70
2023-02-04T17:41:31.082Z,17.02
2023-02-04T17:44:00.169Z,16.75
2023-02-04T17:46:27.260Z,20.85
2023-02-04T17:48:54.277Z,19.30
2023-02-04T17:51:21.309Z,22.27
2023-02-04T17:53:48.465Z,22.00
2023-02-04T17:56:15.518Z,23.30
2023-02-04T17:58:43.434Z,26.67
2023-02-04T18:01:17.053Z,23.70
2023-02-04T18:03:46.555Z,24.48
2023-02-04T18:06:23.962Z,23.60
2023-02-04T18:08:52.744Z,26.48
2023-02-04T18:11:21.850Z,25.23
2023-02-04T18:13:49.186Z,21.88
2023-02-04T18:16:26.308Z,24.05
2023-02-04T18:21:31.891Z,25.75
2023-02-04T18:24:20.285Z,24.52
2023-02-04T18:26:50.486Z,24.25
2023-02-04T18:29:26.865Z,24.55
2023-02-04T18:32:00.134Z,31.00
2023-02-04T18:34:40.720Z,23.40
2023-02-04T18:37:34.113Z,26.13
2023-02-04T18:40:10.362Z,21.92
2023-02-04T18:42:42.937Z,21.55
2023-02-04T18:45:27.947Z,19.73
2023-02-04T18:47:57.198Z,21.77
2023-02-04T18:50:35.246Z,20.80
2023-02-04T18:53:08.352Z,26.33
2023-02-04T18:55:44.376Z,22.60
2023-02-04T18:58:18.007Z,21.85
2023-02-04T19:00:50.736Z,19.58
2023-02-04T19:03:26.457Z,22.63
2023-02-04T19:05:55.031Z,19.90
2023-02-04T19:08:40.663Z,23.98
2023-02-04T19:11:26.532Z,21.48
2023-02-04T19:13:57.170Z,21.73
2023-02-04T19:16:36.714Z,21.45
2023-02-04T19:19:26.785Z,19.23
2023-02-04T19:21:53.778Z,20.58
2023-02-04T19:24:27.000Z,22.98
2023-02-04T19:26:59.172Z,21.05
2023-02-04T19:29:28.753Z,19.42
2023-02-04T19:32:04.961Z,21.48
2023-02-04T19:34:37.387Z,20.25
2023-02-04T19:37:43.332Z,17.90
2023-02-04T19:40:39.918Z,18.55
2023-02-04T19:43:36.317Z,17.88
2023-02-04T19:46:19.942Z,22.75
2023-02-04T19:48:47.519Z,21.25
2023-02-04T19:51:24.658Z,18.50
2023-02-04T19:56:37.651Z,21.90
2023-02-04T19:59:35.736Z,20.33
2023-02-04T20:02:33.942Z,21.65
2023-02-04T20:05:01.737Z,19.45
2023-02-04T20:07:33.260Z,18.85
2023-02-04T20:10:06.203Z,19.92
2023-02-04T20:12:33.547Z,22.80
2023-02-04T20:15:11.587Z,24.77
2023-02-04T20:17:46.598Z,17.48
2023-02-04T20:20:16.643Z,19.20
2023-02-04T20:22:47.576Z,19.23
2023-02-04T20:25:20.981Z,17.13
2023-02-04T20:27:55.285Z,17.80
2023-02-04T20:30:32.052Z,16.75
2023-02-04T20:33:28.833Z,17.63
2023-02-04T20:36:38.274Z,18.42
2023-02-04T20:39:28.337Z,18.67
2023-02-04T20:42:07.090Z,20.35
2023-02-04T20:44:39.866Z,18.95
2023-02-04T20:47:29.916Z,19.83
2023-02-04T20:49:58.699Z,18.13
2023-02-04T20:52:51.656Z,21.00
2023-02-04T20:55:33.471Z,24.63
2023-02-04T20:58:15.937Z,21.70
2023-02-04T21:00:44.582Z,22.48
2023-02-04T21:03:33.793Z,17.50
2023-02-04T21:06:01.691Z,22.00
2023-02-04T21:08:33.612Z,17.40
2023-02-04T21:11:01.561Z,16.52
2023-02-04T21:13:29.104Z,15.60
2023-02-04T21:15:56.766Z,16.85
2023-02-04T21:18:24.632Z,16.98
2023-02-04T21:20:51.642Z,16.13
2023-02-04T21:23:19.655Z,17.17
2023-02-04T21:25:47.047Z,19.30
2023-02-04T21:28:14.869Z,18.27
2023-02-04T21:30:42.086Z,19.83
2023-02-04T21:33:12.184Z,21.10
2023-02-04T21:35:40.086Z,19.85
2023-02-04T21:38:07.574Z,22.73
2023-02-04T21:40:36.323Z,18.55
2023-02-04T21:43:06.411Z,17.65
2023-02-04T21:45:34.677Z,25.45
2023-02-04T21:48:02.981Z,16.10
2023-02-04T21:50:30.974Z,17.15
2023-02-04T21:52:57.998Z,17.23
2023-02-04T21:55:25.013Z,17.23
2023-02-04T21:57:52.394Z,16.85
2023-02-04T22:00:22.950Z,16.33
2023-02-04T22:02:51.689Z,17.92
2023-02-04T22:05:19.693Z,15.30
2023-02-04T22:07:47.015Z,16.50
2023-02-04T22:10:20.262Z,15.60
2023-02-04T22:12:47.768Z,16.73
2023-02-04T22:15:15.158Z,17.33
2023-02-04T22:17:42.135Z,17.45
2023-02-04T22:20:10.115Z,19.33
2023-02-04T22:22:37.097Z,20.88
2023-02-04T22:25:04.776Z,16.75
2023-02-04T22:27:31.802Z,17.92
2023-02-04T22:30:02.465Z,16.55
2023-02-04T22:32:31.564Z,18.58
2023-02-04T22:34:58.827Z,20.03
2023-02-04T22:37:25.918Z,18.23
2023-02-04T22:39:53.017Z,18.25
2023-02-04T22:42:20.029Z,17.25
2023-02-04T22:44:47.352Z,18.00
2023-02-04T22:47:14.479Z,19.45
2023-02-04T22:49:41.525Z,15.80
2023-02-04T22:52:08.774Z,17.80
2023-02-04T22:54:36.942Z,17.83
2023-02-04T22:57:04.274Z,16.05
2023-02-04T22:59:31.381Z,20.15
2023-02-04T23:01:58.712Z,15.48
2023-02-04T23:04:25.756Z,13.90
2023-02-04T23:06:53.252Z,18.17
2023-02-04T23:09:21.396Z,15.18
2023-02-04T23:11:48.558Z,18.52
2023-02-04T23:14:15.718Z,20.80
2023-02-04T23:16:42.844Z,19.03
2023-02-04T23:19:09.940Z,18.40
2023-02-04T23:21:36.968Z,16.55
2023-02-04T23:24:04.073Z,19.10
2023-02-04T23:26:31.169Z,18.33
2023-02-04T23:29:00.868Z,15.38
2023-02-04T23:31:28.231Z,15.80
2023-02-04T23:33:55.273Z,14.68
2023-02-04T23:36:22.743Z,15.17
2023-02-04T23:38:49.730Z,16.73
2023-02-04T23:41:16.792Z,15.75
2023-02-04T23:43:43.759Z,14.55
2023-02-04T23:46:11.466Z,19.55
2023-02-04T23:48:38.470Z,20.80
2023-02-04T23:51:05.638Z,17.30
2023-02-04T23:53:32.594Z,15.45
2023-02-04T23:55:59.645Z,18.15
2023-02-04T23:58:26.738Z,18.50
